createdAt,value
2017-10-17T00:01:05.593Z,15.40
2017-10-17T00:03:33.897Z,16.13
2017-10-17T00:06:01.476Z,17.70
2017-10-17T00:08:29.052Z,17.20
2017-10-17T00:10:56.566Z,18.40
2017-10-17T00:13:24.150Z,16.57
2017-10-17T00:15:51.678Z,19.00
2017-10-17T00:18:19.237Z,13.17
2017-10-17T00:20:46.891Z,15.30
2017-10-17T00:23:15.266Z,13.87
2017-10-17T00:25:43.621Z,12.67
2017-10-17T00:28:11.185Z,12.80
2017-10-17T00:30:39.460Z,11.87
2017-10-17T00:33:08.602Z,14.27
2017-10-17T00:35:48.497Z,15.83
2017-10-17T00:38:16.014Z,18.27
2017-10-17T00:40:43.590Z,14.90
2017-10-17T00:43:14.512Z,14.10
2017-10-17T00:45:42.034Z,13.73
2017-10-17T00:48:10.346Z,13.70
2017-10-17T00:50:49.429Z,14.30
2017-10-17T00:53:18.742Z,17.47
2017-10-17T00:55:47.158Z,13.32
2017-10-17T00:58:14.668Z,16.60
2017-10-17T01:00:42.212Z,15.10
2017-10-17T01:03:09.735Z,12.83
2017-10-17T01:05:37.282Z,13.45
2017-10-17T01:08:04.780Z,16.10
2017-10-17T01:10:32.319Z,17.30
2017-10-17T01:12:59.821Z,19.83
2017-10-17T01:15:27.351Z,13.80
2017-10-17T01:17:54.855Z,16.90
2017-10-17T01:20:30.828Z,12.80
2017-10-17T01:22:58.332Z,12.10
2017-10-17T01:25:25.895Z,13.43
2017-10-17T01:41:15.069Z,12.07
2017-10-17T01:43:43.995Z,12.43
2017-10-17T01:46:11.541Z,11.80
2017-10-17T01:48:45.587Z,11.13
2017-10-17T01:51:16.602Z,11.43
2017-10-17T01:53:56.878Z,14.90
2017-10-17T01:56:25.424Z,13.83
2017-10-17T01:58:53.733Z,15.30
2017-10-17T02:01:23.020Z,15.40
2017-10-17T02:03:51.291Z,15.57
2017-10-17T02:06:18.936Z,15.43
2017-10-17T02:08:47.200Z,13.03
2017-10-17T02:11:15.631Z,17.80
2017-10-17T02:13:43.125Z,13.70
2017-10-17T02:16:10.678Z,14.30
2017-10-17T02:18:38.183Z,13.30
2017-10-17T02:21:06.502Z,11.20
2017-10-17T02:23:34.026Z,15.98
2017-10-17T02:26:08.141Z,13.97
2017-10-17T02:28:51.329Z,14.23
2017-10-17T02:31:18.883Z,14.33
2017-10-17T02:33:50.073Z,13.50
2017-10-17T02:36:17.601Z,17.90
2017-10-17T02:38:45.211Z,12.33
2017-10-17T02:41:12.871Z,11.17
2017-10-17T02:43:43.843Z,12.13
2017-10-17T02:46:11.469Z,14.10
2017-10-17T02:48:40.699Z,15.23
2017-10-17T02:51:08.214Z,15.83
2017-10-17T02:53:37.193Z,15.00
2017-10-17T02:56:05.699Z,14.37
2017-10-17T02:58:33.198Z,13.10
2017-10-17T03:01:00.737Z,13.67
2017-10-17T03:03:40.842Z,12.90
2017-10-17T03:06:09.117Z,12.90
2017-10-17T03:08:37.374Z,12.87
2017-10-17T03:11:05.046Z,15.80
2017-10-17T03:13:36.025Z,13.13
2017-10-17T03:16:03.692Z,12.48
2017-10-17T03:18:31.219Z,11.85
2017-10-17T03:21:05.495Z,15.30
2017-10-17T03:23:33.724Z,13.90
2017-10-17T03:26:01.249Z,13.50
2017-10-17T03:28:46.557Z,13.00
2017-10-17T03:31:14.072Z,15.07
2017-10-17T03:33:46.312Z,12.37
2017-10-17T03:36:19.378Z,14.00
2017-10-17T03:38:51.417Z,14.83
2017-10-17T03:41:34.770Z,17.13
2017-10-17T03:44:14.943Z,13.33
2017-10-17T03:46:45.019Z,11.40
2017-10-17T03:49:13.192Z,14.93
2017-10-17T03:51:40.714Z,16.07
2017-10-17T03:54:09.046Z,14.43
2017-10-17T03:56:36.628Z,14.27
2017-10-17T03:59:19.966Z,14.07
2017-10-17T04:01:47.734Z,15.33
2017-10-17T04:04:20.887Z,15.03
2017-10-17T04:06:52.843Z,14.47
2017-10-17T04:09:21.121Z,17.90
2017-10-17T04:11:49.401Z,18.87
2017-10-17T04:28:00.731Z,12.53
2017-10-17T04:30:39.491Z,12.82
2017-10-17T04:33:11.563Z,15.80
2017-10-17T04:35:41.760Z,11.77
2017-10-17T04:38:09.300Z,18.33
2017-10-17T04:40:36.816Z,13.68
2017-10-17T04:43:16.441Z,17.63
2017-10-17T04:59:20.072Z,17.30
2017-10-17T05:15:26.706Z,12.53
2017-10-17T05:20:55.320Z,12.33
2017-10-17T05:23:34.230Z,15.03
2017-10-17T05:26:01.784Z,14.37
2017-10-17T05:31:23.152Z,21.00
2017-10-17T05:34:01.290Z,18.47
2017-10-17T05:36:30.466Z,15.70
2017-10-17T05:38:58.009Z,15.55
2017-10-17T05:41:25.671Z,17.23
2017-10-17T05:44:07.139Z,24.53
2017-10-17T05:46:35.393Z,15.27
2017-10-17T05:49:22.316Z,17.98
2017-10-17T05:51:50.582Z,16.30
2017-10-17T05:54:18.085Z,18.43
2017-10-17T05:56:45.623Z,23.60
2017-10-17T05:59:13.906Z,20.20
2017-10-17T06:01:42.173Z,17.90
2017-10-17T06:04:10.466Z,19.63
2017-10-17T06:06:38.665Z,15.23
2017-10-17T06:09:07.253Z,19.70
2017-10-17T06:11:35.427Z,18.23
2017-10-17T06:14:03.077Z,17.90
2017-10-17T06:16:37.397Z,16.73
2017-10-17T06:19:04.973Z,16.93
2017-10-17T06:24:25.994Z,22.90
2017-10-17T06:26:53.541Z,18.30
2017-10-17T06:29:21.071Z,24.70
2017-10-17T06:31:48.595Z,19.47
2017-10-17T06:34:17.015Z,21.10
2017-10-17T06:36:44.549Z,16.53
2017-10-17T06:39:12.144Z,19.60
2017-10-17T06:41:40.649Z,21.97
2017-10-17T06:44:08.148Z,22.50
2017-10-17T06:46:35.863Z,27.13
2017-10-17T06:49:03.422Z,22.43
2017-10-17T06:51:30.961Z,17.87
2017-10-17T06:53:58.465Z,30.90
2017-10-17T06:56:26.219Z,31.93
2017-10-17T06:58:53.735Z,23.30
2017-10-17T07:01:22.136Z,24.53
2017-10-17T07:03:49.698Z,23.80
2017-10-17T07:06:17.270Z,23.13
2017-10-17T07:08:44.848Z,26.40
2017-10-17T07:11:12.698Z,18.60
2017-10-17T07:13:40.196Z,14.37
2017-10-17T07:16:07.721Z,15.13
2017-10-17T07:18:36.174Z,27.87
2017-10-17T07:21:03.753Z,15.83
2017-10-17T07:23:31.278Z,28.00
2017-10-17T07:25:59.589Z,18.57
2017-10-17T07:28:27.135Z,25.02
2017-10-17T07:30:54.678Z,24.67
2017-10-17T07:33:22.215Z,23.63
2017-10-17T07:35:50.491Z,25.00
2017-10-17T07:38:18.814Z,21.33
2017-10-17T07:40:46.326Z,22.83
2017-10-17T07:43:13.926Z,20.27
2017-10-17T07:45:41.493Z,26.80
2017-10-17T07:48:09.024Z,24.17
2017-10-17T07:50:36.710Z,21.03
2017-10-17T07:53:05.037Z,21.57
2017-10-17T07:55:33.398Z,22.83
2017-10-17T07:58:00.898Z,16.00
2017-10-17T08:00:29.172Z,16.00
2017-10-17T08:02:57.497Z,15.43
2017-10-17T08:05:25.075Z,17.87
2017-10-17T08:07:55.197Z,20.40
2017-10-17T08:10:22.894Z,17.53
2017-10-17T08:12:51.166Z,15.13
2017-10-17T08:15:19.445Z,18.17
2017-10-17T08:17:47.725Z,14.83
2017-10-17T08:20:16.007Z,14.40
2017-10-17T08:22:44.403Z,13.40
2017-10-17T08:25:11.975Z,11.20
2017-10-17T08:27:39.538Z,26.13
2017-10-17T08:30:07.151Z,18.23
2017-10-17T08:32:35.449Z,16.80
2017-10-17T08:35:03.126Z,16.53
2017-10-17T08:37:30.654Z,18.60
2017-10-17T08:39:58.940Z,18.43
2017-10-17T08:42:27.260Z,16.73
2017-10-17T08:44:54.891Z,14.57
2017-10-17T08:47:22.551Z,17.97
2017-10-17T08:49:50.045Z,20.77
2017-10-17T08:52:17.594Z,11.87
2017-10-17T08:54:45.110Z,21.20
2017-10-17T08:57:13.531Z,17.17
2017-10-17T08:59:41.034Z,16.33
2017-10-17T09:02:09.334Z,14.00
2017-10-17T09:04:37.729Z,14.43
2017-10-17T09:07:05.260Z,15.63
2017-10-17T09:09:34.270Z,16.00
2017-10-17T09:12:01.809Z,17.63
2017-10-17T09:14:30.074Z,14.37
2017-10-17T09:16:58.504Z,9.63
2017-10-17T09:19:26.013Z,6.37
2017-10-17T09:21:55.047Z,10.50
2017-10-17T09:24:22.632Z,16.70
2017-10-17T09:26:50.276Z,20.37
2017-10-17T09:29:17.764Z,18.97
2017-10-17T09:31:45.298Z,15.50
2017-10-17T09:34:12.843Z,10.30
2017-10-17T09:36:40.343Z,9.83
2017-10-17T09:39:07.835Z,10.33
2017-10-17T09:41:36.149Z,9.10
2017-10-17T09:44:03.700Z,13.43
2017-10-17T09:46:31.192Z,10.13
2017-10-17T09:48:58.748Z,10.63
2017-10-17T09:51:26.262Z,11.40
2017-10-17T09:53:53.784Z,11.33
2017-10-17T09:56:22.175Z,10.03
2017-10-17T09:58:49.707Z,8.60
2017-10-17T10:01:17.219Z,11.77
2017-10-17T10:03:44.792Z,9.53
2017-10-17T10:06:12.923Z,12.23
2017-10-17T10:08:40.469Z,10.67
2017-10-17T10:11:08.150Z,10.77
2017-10-17T10:13:36.451Z,15.10
2017-10-17T10:16:03.993Z,7.87
2017-10-17T10:18:31.675Z,6.70
2017-10-17T10:20:59.216Z,14.30
2017-10-17T10:23:27.539Z,9.60
2017-10-17T10:25:55.053Z,8.10
2017-10-17T10:28:23.340Z,9.33
2017-10-17T10:30:51.615Z,11.45
2017-10-17T10:33:19.905Z,9.77
2017-10-17T10:35:47.451Z,14.40
2017-10-17T10:38:15.850Z,14.93
2017-10-17T10:40:43.353Z,13.35
2017-10-17T10:43:10.892Z,7.10
2017-10-17T10:45:38.383Z,8.20
2017-10-17T10:48:05.946Z,7.87
2017-10-17T10:50:34.962Z,9.30
2017-10-17T10:53:02.455Z,8.25
2017-10-17T10:55:30.098Z,9.00
2017-10-17T10:57:57.618Z,11.60
2017-10-17T11:00:25.142Z,12.07
2017-10-17T11:02:52.654Z,8.37
2017-10-17T11:05:21.168Z,9.73
2017-10-17T11:07:48.723Z,7.37
2017-10-17T11:10:16.257Z,10.80
2017-10-17T11:12:43.836Z,7.37
2017-10-17T11:15:11.336Z,9.63
2017-10-17T11:20:32.689Z,7.87
2017-10-17T11:23:00.205Z,12.17
2017-10-17T11:25:27.777Z,6.67
2017-10-17T11:27:55.285Z,9.70
2017-10-17T11:36:10.300Z,8.07
2017-10-17T11:38:37.808Z,10.90
2017-10-17T11:41:18.134Z,10.57
2017-10-17T11:43:51.422Z,11.93
2017-10-17T11:46:18.982Z,6.43
2017-10-17T11:48:46.498Z,5.10
2017-10-17T11:51:14.000Z,7.20
2017-10-17T11:53:41.585Z,9.33
2017-10-17T11:56:09.235Z,10.90
2017-10-17T11:58:36.748Z,13.93
2017-10-17T12:01:05.063Z,10.37
2017-10-17T12:03:32.707Z,7.65
2017-10-17T12:08:52.973Z,7.23
2017-10-17T12:19:59.958Z,8.70
2017-10-17T12:22:27.484Z,6.47
2017-10-17T12:24:55.001Z,6.73
2017-10-17T12:27:22.769Z,8.60
2017-10-17T12:29:50.282Z,10.03
2017-10-17T12:32:18.569Z,7.00
2017-10-17T12:34:46.071Z,7.40
2017-10-17T12:37:13.590Z,9.03
2017-10-17T12:39:41.090Z,10.88
2017-10-17T12:42:08.616Z,8.93
2017-10-17T12:44:36.112Z,9.17
2017-10-17T12:47:05.129Z,8.55
2017-10-17T12:49:32.668Z,8.97
2017-10-17T12:52:00.185Z,8.13
2017-10-17T12:54:27.672Z,9.30
2017-10-17T12:56:55.214Z,5.63
2017-10-17T12:59:23.949Z,12.40
2017-10-17T13:01:51.591Z,10.93
2017-10-17T13:04:19.081Z,9.93
2017-10-17T13:06:47.357Z,9.70
2017-10-17T13:09:15.782Z,10.47
2017-10-17T13:11:43.336Z,10.80
2017-10-17T13:14:10.838Z,17.23
2017-10-17T13:16:38.378Z,15.17
2017-10-17T13:19:05.971Z,9.07
2017-10-17T13:21:33.524Z,16.00
2017-10-17T13:24:01.066Z,12.90
2017-10-17T13:26:29.391Z,13.57
2017-10-17T13:28:56.893Z,16.33
2017-10-17T13:31:24.413Z,15.73
2017-10-17T13:33:51.907Z,17.00
2017-10-17T13:36:19.402Z,12.97
2017-10-17T13:38:47.678Z,20.17
2017-10-17T13:41:16.303Z,9.40
2017-10-17T13:43:43.904Z,12.53
2017-10-17T13:46:11.425Z,16.77
2017-10-17T13:51:32.139Z,10.43
2017-10-17T13:53:59.668Z,12.17
2017-10-17T13:56:27.963Z,11.77
2017-10-17T13:58:55.508Z,14.17
2017-10-17T14:01:23.029Z,16.60
2017-10-17T14:03:50.548Z,11.00
2017-10-17T14:06:18.054Z,12.37
2017-10-17T14:08:47.919Z,10.87
2017-10-17T14:11:15.482Z,13.33
2017-10-17T14:13:42.994Z,12.80
2017-10-17T14:16:11.275Z,11.87
2017-10-17T14:18:40.346Z,14.93
2017-10-17T14:21:07.863Z,12.90
2017-10-17T14:23:35.532Z,16.77
2017-10-17T14:26:03.876Z,9.10
2017-10-17T14:28:51.537Z,11.80
2017-10-17T14:31:19.032Z,18.87
2017-10-17T14:33:46.760Z,10.10
2017-10-17T14:36:15.423Z,15.43
2017-10-17T14:38:43.879Z,15.67
2017-10-17T14:41:12.568Z,9.37
2017-10-17T14:43:40.076Z,21.37
2017-10-17T14:46:07.582Z,13.83
2017-10-17T14:48:35.135Z,12.98
2017-10-17T14:51:03.689Z,14.83
2017-10-17T14:53:31.291Z,11.07
2017-10-17T14:55:58.864Z,20.17
2017-10-17T14:58:27.179Z,16.30
2017-10-17T15:00:54.732Z,16.97
2017-10-17T15:03:22.884Z,15.90
2017-10-17T15:05:51.168Z,15.40
2017-10-17T15:08:18.706Z,21.03
2017-10-17T15:10:46.999Z,16.83
2017-10-17T15:13:14.537Z,15.80
2017-10-17T15:15:43.247Z,15.07
2017-10-17T15:18:10.741Z,12.57
2017-10-17T15:20:38.301Z,19.35
2017-10-17T15:23:05.816Z,14.27
2017-10-17T15:25:34.096Z,15.57
2017-10-17T15:28:01.671Z,16.27
2017-10-17T15:30:29.192Z,22.90
2017-10-17T15:32:56.699Z,15.33
2017-10-17T15:35:24.233Z,13.20
2017-10-17T15:37:54.396Z,17.10
2017-10-17T15:40:22.159Z,18.80
2017-10-17T15:42:50.526Z,17.13
2017-10-17T15:45:18.202Z,17.10
2017-10-17T15:47:45.742Z,17.73
2017-10-17T15:50:13.240Z,13.17
2017-10-17T15:52:40.739Z,10.90
2017-10-17T15:55:08.247Z,17.03
2017-10-17T15:57:35.775Z,12.77
2017-10-17T16:00:04.561Z,12.00
2017-10-17T16:02:32.159Z,15.00
2017-10-17T16:04:59.666Z,12.43
2017-10-17T16:07:27.205Z,11.43
2017-10-17T16:09:55.455Z,11.00
2017-10-17T16:12:23.029Z,11.67
2017-10-17T16:14:50.534Z,10.30
2017-10-17T16:17:18.045Z,15.77
2017-10-17T16:19:45.546Z,11.80
2017-10-17T16:22:13.060Z,16.30
2017-10-17T16:24:40.565Z,17.30
2017-10-17T16:27:08.095Z,13.18
2017-10-17T16:29:35.611Z,14.93
2017-10-17T16:32:03.168Z,12.23
2017-10-17T16:34:30.667Z,9.70
2017-10-17T16:36:58.940Z,11.87
2017-10-17T16:39:27.195Z,11.33
2017-10-17T16:41:54.687Z,12.80
2017-10-17T16:44:22.194Z,15.30
2017-10-17T16:46:49.733Z,22.27
2017-10-17T16:49:17.228Z,14.95
2017-10-17T16:51:44.754Z,12.10
2017-10-17T16:54:12.418Z,13.40
2017-10-17T16:56:39.926Z,10.70
2017-10-17T16:59:08.227Z,15.10
2017-10-17T17:01:35.736Z,13.27
2017-10-17T17:04:03.434Z,14.20
2017-10-17T17:06:31.851Z,11.53
2017-10-17T17:08:59.374Z,14.37
2017-10-17T17:11:27.910Z,11.43
2017-10-17T17:13:56.272Z,11.73
2017-10-17T17:16:24.721Z,10.97
2017-10-17T17:18:54.481Z,13.77
2017-10-17T17:21:22.310Z,12.77
2017-10-17T17:23:50.061Z,11.57
2017-10-17T17:26:18.571Z,12.37
2017-10-17T17:28:46.371Z,11.43
2017-10-17T17:31:14.220Z,10.50
2017-10-17T17:33:43.103Z,11.90
2017-10-17T17:36:10.638Z,12.70
2017-10-17T17:38:38.319Z,10.60
2017-10-17T17:41:05.834Z,13.40
2017-10-17T17:43:34.130Z,11.10
2017-10-17T17:46:01.639Z,15.53
2017-10-17T17:48:29.147Z,20.97
2017-10-17T17:50:56.650Z,11.47
2017-10-17T17:53:24.176Z,11.30
2017-10-17T17:55:51.728Z,16.07
2017-10-17T17:58:19.240Z,11.50
2017-10-17T18:00:46.855Z,12.53
2017-10-17T18:03:14.356Z,12.63
2017-10-17T18:05:41.893Z,15.90
2017-10-17T18:08:09.409Z,13.47
2017-10-17T18:10:37.696Z,12.43
2017-10-17T18:13:05.242Z,15.93
2017-10-17T18:15:33.661Z,12.73
2017-10-17T18:18:01.175Z,14.33
2017-10-17T18:20:29.460Z,17.43
2017-10-17T18:22:57.872Z,18.60
2017-10-17T18:25:25.425Z,13.10
2017-10-17T18:27:53.082Z,13.60
2017-10-17T18:30:20.619Z,12.60
2017-10-17T18:32:48.123Z,19.87
2017-10-17T18:35:15.653Z,13.23
2017-10-17T18:37:43.142Z,12.17
2017-10-17T18:40:10.667Z,10.93
2017-10-17T18:42:38.155Z,12.73
2017-10-17T18:45:05.652Z,13.80
2017-10-17T18:47:34.135Z,14.47
2017-10-17T18:50:01.737Z,14.17
2017-10-17T18:52:29.249Z,15.10
2017-10-17T18:54:57.530Z,17.87
2017-10-17T18:57:25.095Z,21.03
2017-10-17T18:59:52.968Z,14.52
2017-10-17T19:02:21.255Z,18.00
2017-10-17T19:04:48.763Z,21.87
2017-10-17T19:07:16.300Z,16.97
2017-10-17T19:09:43.833Z,21.30
2017-10-17T19:12:11.349Z,19.52
2017-10-17T19:14:38.917Z,19.10
2017-10-17T19:17:06.441Z,19.60
2017-10-17T19:19:34.045Z,18.73
2017-10-17T19:22:03.257Z,15.50
2017-10-17T19:24:31.525Z,17.60
2017-10-17T19:26:59.804Z,24.47
2017-10-17T19:29:28.068Z,19.57
2017-10-17T19:31:55.597Z,19.40
2017-10-17T19:34:23.135Z,18.45
2017-10-17T19:36:50.644Z,16.53
2017-10-17T19:39:18.162Z,15.87
2017-10-17T19:41:45.737Z,15.20
2017-10-17T19:44:15.394Z,14.48
2017-10-17T19:46:43.757Z,18.03
2017-10-17T19:49:11.263Z,16.90
2017-10-17T19:51:58.475Z,23.63
2017-10-17T19:54:25.985Z,21.37
2017-10-17T19:56:54.932Z,17.20
2017-10-17T19:59:23.725Z,19.03
2017-10-17T20:01:51.253Z,19.57
2017-10-17T20:04:19.554Z,16.83
2017-10-17T20:06:47.063Z,17.00
2017-10-17T20:09:14.578Z,17.67
2017-10-17T20:11:42.410Z,15.53
2017-10-17T20:14:10.730Z,20.07
2017-10-17T20:16:38.262Z,11.93
2017-10-17T20:19:05.774Z,13.33
2017-10-17T20:21:33.389Z,20.43
2017-10-17T20:24:00.915Z,25.60
2017-10-17T20:26:28.419Z,16.10
2017-10-17T20:28:55.932Z,21.60
2017-10-17T20:31:24.248Z,16.10
2017-10-17T20:33:53.320Z,15.43
2017-10-17T20:36:21.593Z,18.02
2017-10-17T20:38:49.145Z,15.33
2017-10-17T20:41:17.431Z,18.40
2017-10-17T20:43:45.700Z,18.70
2017-10-17T20:46:13.935Z,13.97
2017-10-17T20:48:41.699Z,14.20
2017-10-17T20:51:15.274Z,14.23
2017-10-17T20:53:43.725Z,19.10
2017-10-17T20:56:11.232Z,18.27
2017-10-17T20:58:38.750Z,17.23
2017-10-17T21:01:06.327Z,18.23
2017-10-17T21:03:33.940Z,12.83
2017-10-17T21:06:01.549Z,13.90
2017-10-17T21:08:29.081Z,15.53
2017-10-17T21:10:57.349Z,12.40
2017-10-17T21:13:25.688Z,14.47
2017-10-17T21:15:53.184Z,13.80
2017-10-17T21:18:21.439Z,13.20
2017-10-17T21:20:48.963Z,11.90
2017-10-17T21:23:16.525Z,16.83
2017-10-17T21:25:44.161Z,14.50
2017-10-17T21:28:11.672Z,15.07
2017-10-17T21:30:39.194Z,17.57
2017-10-17T21:33:06.698Z,16.57
2017-10-17T21:35:35.160Z,17.83
2017-10-17T21:38:02.709Z,15.20
2017-10-17T21:40:30.203Z,16.40
2017-10-17T21:42:59.204Z,18.87
2017-10-17T21:45:27.484Z,15.07
2017-10-17T21:47:55.768Z,16.10
2017-10-17T21:50:24.089Z,13.13
2017-10-17T21:52:51.583Z,12.80
2017-10-17T21:55:19.079Z,14.48
2017-10-17T21:57:46.595Z,12.30
2017-10-17T22:00:14.091Z,17.00
2017-10-17T22:02:41.652Z,15.73
2017-10-17T22:05:09.165Z,16.00
2017-10-17T22:07:36.675Z,17.10
2017-10-17T22:10:04.274Z,20.10
2017-10-17T22:12:31.807Z,15.53
2017-10-17T22:15:07.412Z,13.00
2017-10-17T22:17:35.703Z,16.00
2017-10-17T22:20:04.080Z,21.57
2017-10-17T22:22:32.370Z,15.30
2017-10-17T22:24:59.914Z,18.83
2017-10-17T22:27:28.408Z,13.17
2017-10-17T22:29:55.956Z,14.73
2017-10-17T22:32:24.785Z,16.10
2017-10-17T22:34:52.321Z,15.10
2017-10-17T22:37:19.828Z,13.60
2017-10-17T22:39:47.348Z,14.50
2017-10-17T22:42:14.863Z,15.10
2017-10-17T22:44:42.414Z,17.67
2017-10-17T22:47:15.567Z,16.37
2017-10-17T22:49:43.613Z,16.43
2017-10-17T22:52:11.113Z,12.73
2017-10-17T22:54:38.603Z,16.73
2017-10-17T22:57:14.659Z,20.33
2017-10-17T22:59:43.041Z,18.67
2017-10-17T23:02:11.393Z,18.13
2017-10-17T23:04:38.889Z,15.17
2017-10-17T23:07:07.183Z,15.97
2017-10-17T23:09:34.670Z,16.90
2017-10-17T23:12:02.243Z,15.77
2017-10-17T23:14:30.575Z,14.83
2017-10-17T23:25:36.383Z,20.73
2017-10-17T23:28:04.630Z,16.00
2017-10-17T23:30:32.196Z,21.77
2017-10-17T23:33:00.576Z,18.00
2017-10-17T23:35:28.882Z,14.03
2017-10-17T23:37:56.369Z,15.90
2017-10-17T23:40:23.988Z,17.60
2017-10-17T23:42:52.276Z,16.90
2017-10-17T23:45:19.826Z,15.93
2017-10-17T23:47:47.330Z,20.90
2017-10-17T23:50:14.854Z,14.30
2017-10-17T23:52:42.337Z,16.83
2017-10-17T23:55:09.838Z,18.67
2017-10-17T23:57:37.330Z,18.77
